Time;durP1;ratioP1;P1;durP2;ratioP2;P2;SDS_P1;SDS_P2;PMS_P1;PMS_P2;Temp;Humidity;BMP_temperature;BMP_pressure;BME280_temperature;BME280_humidity;BME280_pressure;Samples;Min_cycle;Max_cycle;Signal;HPM_P1;HPM_P2
2022/12/26 00:00:59;;;;;;;77.70;35.15;;;6.90;99.90;;;;;;5012230;28;20053;-68
2022/12/26 00:03:24;;;;;;;103.10;35.55;;;6.90;99.90;;;;;;5014035;28;20485;-68
2022/12/26 00:05:50;;;;;;;69.00;32.97;;;6.90;99.90;;;;;;5013031;28;20033;-68
2022/12/26 00:08:16;;;;;;;87.20;32.17;;;6.90;99.90;;;;;;5013467;28;20033;-68
2022/12/26 00:10:42;;;;;;;102.10;34.78;;;6.90;99.90;;;;;;5012708;28;20034;-68
2022/12/26 00:13:07;;;;;;;145.73;37.58;;;6.90;99.90;;;;;;5013251;28;20148;-68
2022/12/26 00:15:33;;;;;;;100.93;38.17;;;6.80;99.90;;;;;;5013921;28;20041;-68
2022/12/26 00:17:59;;;;;;;70.53;33.03;;;6.90;99.90;;;;;;5013463;28;20401;-68
2022/12/26 00:20:24;;;;;;;87.90;36.47;;;6.90;99.90;;;;;;5012893;28;20030;-68
2022/12/26 00:22:50;;;;;;;81.38;34.40;;;6.90;99.90;;;;;;5014038;28;20030;-68
2022/12/26 00:25:15;;;;;;;72.72;32.13;;;6.90;99.90;;;;;;5012816;28;20037;-68
2022/12/26 00:27:41;;;;;;;136.70;36.75;;;6.90;99.90;;;;;;5012658;28;20397;-68
2022/12/26 00:30:07;;;;;;;107.15;34.60;;;7.00;99.90;;;;;;5012554;28;20030;-68
2022/12/26 00:32:33;;;;;;;116.00;36.60;;;6.90;99.90;;;;;;5012947;28;20033;-68
2022/12/26 00:34:58;;;;;;;71.20;31.27;;;6.90;99.90;;;;;;5012945;28;20021;-68
2022/12/26 00:37:24;;;;;;;191.57;38.25;;;7.00;99.90;;;;;;5011590;28;20033;-68
2022/12/26 00:39:49;;;;;;;459.70;50.28;;;6.90;99.90;;;;;;5011663;28;20069;-68
2022/12/26 00:42:15;;;;;;;107.47;34.15;;;7.00;99.90;;;;;;5011134;28;20069;-68
2022/12/26 00:44:40;;;;;;;81.95;32.20;;;6.90;99.90;;;;;;4997290;28;20019;-68
2022/12/26 00:47:06;;;;;;;91.35;33.25;;;7.00;99.90;;;;;;5009115;28;20037;-68
2022/12/26 00:49:31;;;;;;;75.13;30.23;;;6.90;99.90;;;;;;5011382;28;20382;-68
2022/12/26 00:51:57;;;;;;;69.35;29.70;;;7.00;99.90;;;;;;5011563;28;20083;-68
2022/12/26 00:54:22;;;;;;;71.43;27.70;;;7.00;99.90;;;;;;5012376;28;20108;-68
2022/12/26 00:56:48;;;;;;;198.70;33.70;;;7.00;99.90;;;;;;5012481;28;20099;-68
2022/12/26 00:59:13;;;;;;;104.18;32.10;;;7.00;99.90;;;;;;5012308;28;20053;-68
2022/12/26 01:01:39;;;;;;;178.00;36.05;;;7.00;99.90;;;;;;5012058;28;20519;-68
2022/12/26 01:04:04;;;;;;;76.10;28.35;;;7.00;99.90;;;;;;5013410;28;20088;-68
2022/12/26 01:06:30;;;;;;;102.88;31.15;;;7.00;99.90;;;;;;5011947;28;20540;-68
2022/12/26 01:08:55;;;;;;;488.30;46.58;;;7.00;99.90;;;;;;5012927;28;20045;-68
2022/12/26 01:11:39;;;;;;;394.65;40.45;;;7.00;99.90;;;;;;5012326;28;20373;-68
2022/12/26 01:14:07;;;;;;;83.03;26.17;;;7.00;99.90;;;;;;5013573;28;20033;-67
2022/12/26 01:16:33;;;;;;;199.60;32.30;;;7.10;99.90;;;;;;5011469;28;20406;-68
2022/12/26 01:18:58;;;;;;;287.35;36.28;;;7.10;99.90;;;;;;5012288;28;20034;-68
2022/12/26 01:21:24;;;;;;;87.38;26.67;;;7.10;99.90;;;;;;5012398;28;20034;-68
2022/12/26 01:23:49;;;;;;;100.30;26.48;;;7.10;99.90;;;;;;5011666;28;20092;-68
2022/12/26 01:26:15;;;;;;;183.02;29.73;;;7.00;99.90;;;;;;5016687;28;20044;-68
2022/12/26 01:28:40;;;;;;;89.47;27.92;;;7.00;99.90;;;;;;5016608;28;20022;-68
2022/12/26 01:31:06;;;;;;;204.15;29.98;;;7.10;99.90;;;;;;5013849;28;20033;-68
2022/12/26 01:33:32;;;;;;;144.45;30.10;;;7.10;99.90;;;;;;5015394;28;20026;-69
2022/12/26 01:35:57;;;;;;;256.63;32.67;;;7.10;99.90;;;;;;5013717;28;20030;-68
2022/12/26 01:38:23;;;;;;;264.92;34.30;;;7.10;99.90;;;;;;5014669;28;20030;-68
2022/12/26 01:41:15;;;;;;;93.50;28.48;;;7.00;99.90;;;;;;5013787;28;20513;-68
2022/12/26 01:44:06;;;;;;;165.70;29.08;;;7.10;99.90;;;;;;5015868;28;20038;-68
2022/12/26 01:46:41;;;;;;;107.15;24.17;;;7.10;99.90;;;;;;5004734;28;20030;-68
2022/12/26 01:49:20;;;;;;;177.48;29.55;;;7.10;99.90;;;;;;5012239;28;20031;-68
2022/12/26 01:51:54;;;;;;;101.70;27.83;;;7.10;99.90;;;;;;5017196;28;20554;-68
2022/12/26 01:54:21;;;;;;;293.23;33.45;;;7.10;99.90;;;;;;5015728;28;20401;-68
2022/12/26 01:56:47;;;;;;;197.82;32.00;;;7.10;99.90;;;;;;5015352;28;20068;-68
2022/12/26 01:59:17;;;;;;;150.32;27.88;;;7.00;99.90;;;;;;5014300;28;20034;-68
2022/12/26 02:01:46;;;;;;;82.97;25.40;;;7.00;99.90;;;;;;5016642;28;20485;-68
2022/12/26 02:07:02;;;;;;;208.40;32.55;;;7.10;99.90;;;;;;5014270;28;20037;-68
2022/12/26 02:09:28;;;;;;;80.25;26.42;;;7.00;99.90;;;;;;5014969;28;20509;-68
2022/12/26 02:12:07;;;;;;;79.38;24.00;;;7.00;99.90;;;;;;5016492;28;20057;-68
2022/12/26 02:14:34;;;;;;;98.95;27.50;;;7.00;99.90;;;;;;5015921;28;20478;-68
2022/12/26 02:16:59;;;;;;;88.32;27.63;;;7.00;99.90;;;;;;4999590;28;20022;-68
2022/12/26 02:19:49;;;;;;;282.88;36.75;;;7.00;99.90;;;;;;4996045;28;20084;-68
2022/12/26 02:22:48;;;;;;;80.95;27.75;;;7.00;99.90;;;;;;5012820;28;20025;-68
2022/12/26 02:25:35;;;;;;;204.07;34.58;;;7.00;99.90;;;;;;5013929;28;20040;-68
2022/12/26 02:28:31;;;;;;;70.78;25.35;;;7.00;99.90;;;;;;4996106;28;20109;-68
2022/12/26 02:31:21;;;;;;;156.65;32.80;;;7.00;99.90;;;;;;4995934;28;20026;-68
2022/12/26 02:33:55;;;;;;;285.77;35.88;;;7.00;99.90;;;;;;4995850;28;20110;-68
2022/12/26 02:36:50;;;;;;;252.38;36.65;;;7.00;99.90;;;;;;5005907;28;20021;-68
2022/12/26 02:39:41;;;;;;;237.63;33.28;;;7.00;99.90;;;;;;5015847;28;20041;-68
2022/12/26 02:42:39;;;;;;;150.40;29.60;;;7.00;99.90;;;;;;5001525;28;20026;-68
2022/12/26 02:48:42;;;;;;;87.85;21.77;;;7.00;99.90;;;;;;5000011;28;20041;-68
2022/12/26 03:14:58;;;;;;;40.50;10.63;;;7.00;99.90;;;;;;4999813;28;20030;-70
2022/12/26 03:17:37;;;;;;;53.88;13.30;;;7.00;99.90;;;;;;5014374;28;20033;-71
2022/12/26 03:20:10;;;;;;;41.85;14.57;;;7.00;99.90;;;;;;5014019;28;20052;-70
2022/12/26 03:22:53;;;;;;;46.15;15.80;;;7.00;99.90;;;;;;4998960;28;20156;-70
2022/12/26 03:28:41;;;;;;;53.05;15.60;;;7.00;99.90;;;;;;4995459;28;20024;-70
2022/12/26 03:31:10;;;;;;;53.45;14.95;;;6.90;99.90;;;;;;5002849;28;20064;-70
2022/12/26 03:36:33;;;;;;;43.95;15.50;;;6.90;99.90;;;;;;5014873;28;20109;-70
2022/12/26 03:39:10;;;;;;;31.85;13.98;;;6.90;99.90;;;;;;5013160;28;20084;-70
2022/12/26 04:20:28;;;;;;;29.80;10.88;;;6.60;99.90;;;;;;4998147;28;20045;-70
2022/12/26 04:46:10;;;;;;;106.07;20.90;;;6.60;99.90;;;;;;5004123;28;20397;-70
2022/12/26 04:51:27;;;;;;;53.58;18.30;;;6.60;99.90;;;;;;5013706;28;20033;-70
2022/12/26 04:53:53;;;;;;;521.00;41.92;;;6.70;99.90;;;;;;5013471;28;20105;-69
2022/12/26 04:56:18;;;;;;;605.63;45.30;;;6.80;99.90;;;;;;5013153;28;20080;-71
2022/12/26 04:58:44;;;;;;;158.82;29.33;;;6.90;99.90;;;;;;5012855;28;20530;-70
2022/12/26 05:09:33;;;;;;;463.75;44.10;;;6.90;99.90;;;;;;5012874;28;20405;-71
2022/12/26 05:09:50;;;;;;;424.67;38.30;;;7.00;99.90;;;;;;4972155;28;20505;-69
2022/12/26 05:12:15;;;;;;;315.67;34.88;;;7.00;99.90;;;;;;4972223;28;20498;-70
2022/12/26 05:14:41;;;;;;;175.25;31.13;;;6.90;99.90;;;;;;4992270;28;20040;-70
2022/12/26 05:31:00;;;;;;;283.52;37.65;;;6.90;99.90;;;;;;5013559;28;20112;-69
2022/12/26 05:36:12;;;;;;;482.77;42.33;;;6.90;99.90;;;;;;5013169;28;20444;-70
2022/12/26 05:38:38;;;;;;;334.70;38.22;;;6.90;99.90;;;;;;5012879;28;20026;-70
2022/12/26 05:41:04;;;;;;;305.00;38.10;;;6.90;99.90;;;;;;5012990;28;20052;-70
2022/12/26 05:43:29;;;;;;;228.00;32.65;;;6.80;99.90;;;;;;5013956;28;20026;-70
2022/12/26 05:45:55;;;;;;;250.18;33.00;;;6.80;99.90;;;;;;5013016;28;20469;-70
2022/12/26 05:48:21;;;;;;;204.32;32.75;;;6.80;99.90;;;;;;5012954;28;20100;-69
2022/12/26 05:50:46;;;;;;;153.55;30.38;;;6.80;99.90;;;;;;5012671;28;20068;-70
2022/12/26 05:53:12;;;;;;;225.20;32.35;;;6.80;99.90;;;;;;5012844;28;20046;-69
2022/12/26 05:55:37;;;;;;;199.00;30.73;;;6.80;99.90;;;;;;5012696;28;20030;-70
2022/12/26 05:58:03;;;;;;;230.63;34.15;;;6.80;99.90;;;;;;5012835;28;20036;-69
2022/12/26 06:00:29;;;;;;;221.20;33.28;;;6.80;99.90;;;;;;5013561;28;20026;-69
2022/12/26 06:02:55;;;;;;;159.68;31.52;;;6.80;99.90;;;;;;5012582;28;20038;-69
2022/12/26 06:05:21;;;;;;;169.18;31.27;;;6.80;99.90;;;;;;5012606;28;20551;-70
2022/12/26 06:07:47;;;;;;;177.65;31.88;;;6.80;99.90;;;;;;5012796;28;20045;-70
2022/12/26 06:10:12;;;;;;;152.50;29.52;;;6.80;99.90;;;;;;5012764;28;20477;-70
2022/12/26 06:12:38;;;;;;;176.88;29.55;;;6.70;99.90;;;;;;5015359;28;20029;-69
2022/12/26 06:15:04;;;;;;;157.82;29.23;;;6.70;99.90;;;;;;5016214;28;20018;-69
2022/12/26 06:17:29;;;;;;;184.98;32.05;;;6.70;99.90;;;;;;5014564;28;20448;-70
2022/12/26 06:19:55;;;;;;;160.52;30.92;;;6.70;99.90;;;;;;5014908;28;20026;-70
2022/12/26 06:22:21;;;;;;;166.68;30.75;;;6.80;99.90;;;;;;5000950;28;20031;-70
2022/12/26 06:24:46;;;;;;;155.45;30.80;;;6.80;99.90;;;;;;5010718;28;20077;-69
2022/12/26 06:27:12;;;;;;;113.20;28.17;;;6.70;99.90;;;;;;5015884;28;20033;-70
2022/12/26 06:29:37;;;;;;;154.88;30.25;;;6.70;99.90;;;;;;5015957;28;20105;-69
2022/12/26 06:32:03;;;;;;;149.20;30.35;;;6.70;99.90;;;;;;5016619;28;20024;-70
2022/12/26 06:34:29;;;;;;;131.02;28.88;;;6.70;99.90;;;;;;5015815;28;20034;-70
2022/12/26 06:36:54;;;;;;;151.43;30.75;;;6.80;99.90;;;;;;5016058;28;20033;-69
2022/12/26 06:39:20;;;;;;;174.70;32.08;;;6.70;99.90;;;;;;5015772;28;20026;-70
2022/12/26 06:41:46;;;;;;;164.93;30.60;;;6.70;99.90;;;;;;5015842;28;20026;-69
2022/12/26 06:44:12;;;;;;;160.85;29.77;;;6.70;99.90;;;;;;5015738;28;20026;-70
2022/12/26 06:46:38;;;;;;;156.80;32.63;;;6.80;99.90;;;;;;5015786;28;20025;-69
2022/12/26 06:49:05;;;;;;;164.65;30.90;;;6.70;99.90;;;;;;5014721;28;20029;-70
2022/12/26 06:51:32;;;;;;;119.97;30.38;;;6.70;99.90;;;;;;5013900;28;20029;-70
2022/12/26 06:53:59;;;;;;;167.38;32.25;;;6.70;99.90;;;;;;5015106;28;20018;-70
2022/12/26 06:56:26;;;;;;;187.00;32.65;;;6.70;99.90;;;;;;5015365;28;20401;-70
2022/12/26 06:58:56;;;;;;;263.17;38.80;;;6.70;99.90;;;;;;5014617;28;20033;-70
2022/12/26 07:01:24;;;;;;;157.32;33.70;;;6.70;99.90;;;;;;5014860;28;20037;-70
2022/12/26 07:03:51;;;;;;;172.07;35.47;;;6.70;99.90;;;;;;5015104;28;20029;-70
2022/12/26 07:06:31;;;;;;;194.70;37.40;;;6.70;99.90;;;;;;5015013;28;20385;-69
2022/12/26 07:08:59;;;;;;;287.92;45.55;;;6.80;99.90;;;;;;5014835;28;20109;-70
2022/12/26 07:11:28;;;;;;;187.13;38.10;;;6.80;99.90;;;;;;5014787;28;20080;-70
2022/12/26 07:13:54;;;;;;;224.30;39.92;;;6.80;99.90;;;;;;5014992;28;20067;-70
2022/12/26 07:16:20;;;;;;;237.93;39.70;;;6.80;99.90;;;;;;5014726;28;20030;-70
2022/12/26 07:18:45;;;;;;;199.23;37.67;;;6.80;99.90;;;;;;5014626;28;20394;-70
2022/12/26 07:21:13;;;;;;;204.60;38.83;;;6.80;99.90;;;;;;5014576;28;20437;-70
2022/12/26 07:23:39;;;;;;;211.23;38.90;;;6.80;99.90;;;;;;5014178;28;20470;-70
2022/12/26 07:26:05;;;;;;;198.63;39.35;;;6.80;99.90;;;;;;5014456;28;20030;-70
2022/12/26 07:28:30;;;;;;;223.57;41.70;;;6.90;99.90;;;;;;5014514;28;20501;-70
2022/12/26 07:30:56;;;;;;;197.15;41.22;;;6.90;99.90;;;;;;5014349;28;20026;-70
2022/12/26 07:33:22;;;;;;;200.82;44.38;;;6.90;99.90;;;;;;5014638;28;20056;-69
2022/12/26 07:35:48;;;;;;;148.75;36.10;;;6.90;99.90;;;;;;5014259;28;20025;-70
2022/12/26 07:38:14;;;;;;;187.88;43.13;;;6.90;99.90;;;;;;5014045;28;20050;-70
2022/12/26 07:40:39;;;;;;;207.27;45.08;;;6.90;99.90;;;;;;5014109;28;20037;-70
2022/12/26 07:43:05;;;;;;;195.32;43.33;;;6.90;99.90;;;;;;5014068;28;20095;-70
2022/12/26 07:45:30;;;;;;;175.40;42.65;;;7.00;99.90;;;;;;5014188;28;20030;-70
2022/12/26 07:47:57;;;;;;;146.27;36.92;;;7.00;99.90;;;;;;5015060;28;20029;-69
2022/12/26 07:50:24;;;;;;;172.05;39.90;;;7.10;99.90;;;;;;5014495;28;20057;-70
2022/12/26 07:52:50;;;;;;;154.40;40.22;;;7.10;99.90;;;;;;5014310;28;20032;-70
2022/12/26 07:55:16;;;;;;;150.23;40.75;;;7.10;99.90;;;;;;5014282;28;20106;-69
2022/12/26 07:57:41;;;;;;;149.90;39.95;;;7.10;99.90;;;;;;5014275;28;20022;-69
2022/12/26 08:00:08;;;;;;;160.85;44.53;;;7.20;99.90;;;;;;5014228;28;20030;-70
2022/12/26 08:02:34;;;;;;;144.82;41.42;;;7.20;99.90;;;;;;5014101;28;20073;-70
2022/12/26 08:04:59;;;;;;;137.60;40.10;;;7.20;99.90;;;;;;5014109;28;20428;-70
2022/12/26 08:07:25;;;;;;;140.00;42.83;;;7.30;99.90;;;;;;5014071;28;20073;-70
2022/12/26 08:09:50;;;;;;;143.38;41.28;;;7.30;99.90;;;;;;5014100;28;20445;-69
2022/12/26 08:12:16;;;;;;;169.60;45.05;;;7.40;99.90;;;;;;5013982;28;20509;-70
2022/12/26 08:14:41;;;;;;;150.18;46.00;;;7.40;99.90;;;;;;5014191;28;20033;-69
2022/12/26 08:17:07;;;;;;;133.95;44.15;;;7.40;99.90;;;;;;5013956;28;20512;-69
2022/12/26 08:19:33;;;;;;;145.50;44.35;;;7.50;99.90;;;;;;5014155;28;20101;-69
2022/12/26 08:21:58;;;;;;;130.57;43.50;;;7.50;99.90;;;;;;5013798;28;20497;-70
2022/12/26 08:24:24;;;;;;;138.70;43.47;;;7.50;99.90;;;;;;5013786;28;20389;-70
2022/12/26 08:26:50;;;;;;;140.02;44.47;;;7.60;99.90;;;;;;5013817;28;20367;-69
2022/12/26 08:29:15;;;;;;;150.13;45.30;;;7.50;99.90;;;;;;5014351;28;20088;-70
2022/12/26 08:31:41;;;;;;;139.18;46.03;;;7.60;99.90;;;;;;5013676;28;20029;-69
2022/12/26 08:34:06;;;;;;;130.65;43.90;;;7.60;99.90;;;;;;5009920;28;20046;-70
2022/12/26 08:36:32;;;;;;;123.35;41.08;;;7.60;99.90;;;;;;5010291;28;20040;-70
2022/12/26 08:38:58;;;;;;;147.20;46.30;;;7.60;99.90;;;;;;4998644;28;20030;-70
2022/12/26 08:41:23;;;;;;;132.80;42.78;;;7.60;99.90;;;;;;5013489;28;20030;-70
2022/12/26 08:43:50;;;;;;;129.13;44.60;;;7.60;99.90;;;;;;5007376;28;20375;-70
2022/12/26 08:46:17;;;;;;;130.45;44.42;;;7.60;99.90;;;;;;4994116;28;20029;-69
2022/12/26 08:48:44;;;;;;;122.20;43.47;;;7.60;99.90;;;;;;5002273;28;20026;-70
2022/12/26 08:51:23;;;;;;;119.20;41.78;;;7.60;99.90;;;;;;5012897;28;20027;-70
2022/12/26 08:53:50;;;;;;;109.63;39.53;;;7.60;99.90;;;;;;5007082;28;20390;-70
2022/12/26 08:56:19;;;;;;;111.70;41.33;;;7.60;99.90;;;;;;5012771;28;20109;-70
2022/12/26 08:58:45;;;;;;;107.85;39.10;;;7.60;99.90;;;;;;5008657;28;20509;-70
2022/12/26 09:01:19;;;;;;;106.72;40.28;;;7.60;99.90;;;;;;4998627;28;20052;-70
2022/12/26 09:03:46;;;;;;;113.13;43.22;;;7.70;99.90;;;;;;5011450;28;20068;-70
2022/12/26 09:06:13;;;;;;;110.68;43.47;;;7.70;99.90;;;;;;5012883;28;20033;-70
2022/12/26 09:08:40;;;;;;;121.07;46.53;;;7.80;99.90;;;;;;5012091;28;20315;-70
2022/12/26 09:11:08;;;;;;;107.20;41.90;;;7.80;99.90;;;;;;5012900;28;20030;-70
2022/12/26 09:13:35;;;;;;;116.03;44.33;;;7.80;99.90;;;;;;5012083;28;20109;-70
2022/12/26 09:16:09;;;;;;;124.93;45.08;;;7.80;99.90;;;;;;5012973;28;20030;-71
2022/12/26 09:18:35;;;;;;;101.13;41.13;;;7.80;99.90;;;;;;5011928;28;20033;-71
2022/12/26 09:21:02;;;;;;;99.18;40.47;;;7.80;99.90;;;;;;5012921;28;20022;-70
2022/12/26 09:23:28;;;;;;;94.10;41.08;;;7.90;99.90;;;;;;5008301;28;20022;-70
2022/12/26 09:25:54;;;;;;;116.82;43.28;;;7.90;99.90;;;;;;5011042;28;20034;-70
2022/12/26 09:28:20;;;;;;;102.13;39.17;;;7.80;99.90;;;;;;4993320;28;20110;-69
2022/12/26 09:30:45;;;;;;;106.65;40.67;;;7.80;99.90;;;;;;5009907;28;20504;-71
2022/12/26 09:33:11;;;;;;;119.32;43.92;;;7.90;99.90;;;;;;5010808;28;20495;-70
2022/12/26 09:35:40;;;;;;;108.38;42.65;;;7.90;99.90;;;;;;5008342;28;20042;-70
2022/12/26 09:38:06;;;;;;;100.53;41.88;;;7.90;99.90;;;;;;5013311;28;20125;-71
2022/12/26 09:40:58;;;;;;;95.50;41.38;;;7.90;99.90;;;;;;5011999;28;20469;-71
2022/12/26 09:44:00;;;;;;;109.40;43.55;;;7.90;99.90;;;;;;5012661;28;20025;-71
2022/12/26 09:46:38;;;;;;;95.25;41.42;;;7.90;99.90;;;;;;4996458;28;20033;-71
2022/12/26 09:49:10;;;;;;;95.00;42.63;;;8.00;99.90;;;;;;4997179;28;20030;-72
2022/12/26 09:51:38;;;;;;;86.88;39.50;;;8.00;99.90;;;;;;5016873;28;20034;-71
2022/12/26 09:54:10;;;;;;;88.50;39.42;;;8.00;99.90;;;;;;5015814;28;20014;-72
2022/12/26 09:56:38;;;;;;;88.70;40.00;;;8.00;99.90;;;;;;4997280;28;20041;-71
2022/12/26 09:59:12;;;;;;;96.88;40.08;;;8.00;99.90;;;;;;4997234;28;20089;-71
2022/12/26 10:01:38;;;;;;;89.68;39.15;;;8.00;99.90;;;;;;4996914;28;20439;-72
2022/12/26 10:04:08;;;;;;;84.82;39.28;;;8.00;99.90;;;;;;5005521;28;20385;-71
2022/12/26 10:06:42;;;;;;;94.65;40.08;;;8.00;99.90;;;;;;5015375;28;20482;-71
2022/12/26 10:09:28;;;;;;;93.07;39.83;;;8.00;99.90;;;;;;5016602;28;20116;-71
2022/12/26 10:12:16;;;;;;;87.35;39.65;;;8.00;99.90;;;;;;5016255;28;20026;-71
2022/12/26 10:15:04;;;;;;;92.15;41.90;;;8.00;99.90;;;;;;5004486;28;20062;-71
2022/12/26 10:17:36;;;;;;;79.85;40.72;;;7.90;99.90;;;;;;5016743;28;20037;-71
2022/12/26 10:20:08;;;;;;;88.00;39.45;;;7.90;99.90;;;;;;5015164;28;20474;-71
2022/12/26 10:23:02;;;;;;;85.53;41.92;;;7.90;99.90;;;;;;5015762;28;20029;-71
2022/12/26 10:26:04;;;;;;;76.78;41.13;;;8.00;99.90;;;;;;5002844;28;20493;-71
2022/12/26 10:28:52;;;;;;;92.35;42.17;;;8.00;99.90;;;;;;5015850;28;20026;-72
2022/12/26 10:31:40;;;;;;;70.38;36.38;;;8.00;99.90;;;;;;5015132;28;20034;-72
2022/12/26 10:34:29;;;;;;;72.85;39.95;;;8.00;99.90;;;;;;5016144;28;20489;-72
2022/12/26 10:37:14;;;;;;;86.00;36.80;;;8.00;99.90;;;;;;5015053;28;20030;-72
2022/12/26 10:39:57;;;;;;;67.47;37.70;;;8.10;99.90;;;;;;5016055;28;20054;-72
2022/12/26 10:42:38;;;;;;;72.05;35.08;;;8.20;99.90;;;;;;4996438;28;20041;-71
2022/12/26 10:45:18;;;;;;;66.80;34.50;;;8.20;99.90;;;;;;5011138;28;20029;-72
2022/12/26 10:47:49;;;;;;;72.13;34.50;;;8.30;99.90;;;;;;5015860;28;20022;-71
2022/12/26 10:50:24;;;;;;;62.40;33.92;;;8.30;99.90;;;;;;5014507;28;20031;-74
2022/12/26 10:52:50;;;;;;;59.70;32.83;;;8.30;99.90;;;;;;5015772;28;20014;-71
2022/12/26 10:55:18;;;;;;;54.65;31.35;;;8.20;99.90;;;;;;4999311;28;20045;-71
2022/12/26 10:57:47;;;;;;;72.97;31.85;;;8.20;99.90;;;;;;4996908;28;20486;-71
2022/12/26 11:00:18;;;;;;;66.30;33.25;;;8.10;99.90;;;;;;5008590;28;20026;-71
2022/12/26 11:02:44;;;;;;;59.67;31.60;;;8.10;99.90;;;;;;5014928;28;20040;-70
2022/12/26 11:05:12;;;;;;;62.33;31.38;;;8.10;99.90;;;;;;5013858;28;20022;-71
2022/12/26 11:07:49;;;;;;;62.13;31.20;;;8.10;99.90;;;;;;5013773;28;20034;-71
2022/12/26 11:10:20;;;;;;;57.88;28.27;;;8.10;99.90;;;;;;5014528;28;20441;-71
2022/12/26 11:12:50;;;;;;;56.17;29.98;;;8.10;99.90;;;;;;5011817;28;20084;-72
2022/12/26 11:15:31;;;;;;;56.83;28.13;;;8.00;99.90;;;;;;5014237;28;20034;-73
2022/12/26 11:18:24;;;;;;;54.78;28.27;;;8.00;99.90;;;;;;5014768;28;20128;-71
2022/12/26 11:20:50;;;;;;;62.97;29.00;;;8.00;99.90;;;;;;5013608;28;20108;-71
2022/12/26 11:23:29;;;;;;;54.30;28.13;;;8.00;99.90;;;;;;5013542;28;20124;-71
2022/12/26 11:25:57;;;;;;;54.50;27.88;;;8.00;99.90;;;;;;4998596;28;20553;-71
2022/12/26 11:28:27;;;;;;;58.03;27.20;;;8.00;99.90;;;;;;5014659;28;20026;-71
2022/12/26 11:30:53;;;;;;;58.88;25.88;;;8.00;99.90;;;;;;5013671;28;20449;-71
2022/12/26 11:33:29;;;;;;;46.85;23.80;;;8.00;99.90;;;;;;5013828;28;20029;-71
2022/12/26 11:36:10;;;;;;;49.55;22.83;;;8.00;99.90;;;;;;5010965;28;20030;-71
2022/12/26 11:38:46;;;;;;;46.30;22.38;;;8.10;99.90;;;;;;5014004;28;20096;-71
2022/12/26 11:41:32;;;;;;;41.83;22.30;;;8.00;99.90;;;;;;5013260;28;20038;-71
2022/12/26 11:44:01;;;;;;;56.78;22.95;;;8.00;99.90;;;;;;5014250;28;20018;-71
2022/12/26 11:46:59;;;;;;;51.13;25.10;;;8.00;99.90;;;;;;5012793;28;20404;-70
2022/12/26 11:49:53;;;;;;;54.67;23.25;;;8.00;99.90;;;;;;5014168;28;20069;-71
2022/12/26 11:52:47;;;;;;;51.67;22.80;;;8.00;99.90;;;;;;5010531;28;20022;-71
2022/12/26 11:55:21;;;;;;;43.45;18.30;;;7.90;99.90;;;;;;5000266;28;20108;-72
2022/12/26 11:58:06;;;;;;;45.38;20.52;;;7.90;99.90;;;;;;5012560;28;20481;-72
2022/12/26 12:00:58;;;;;;;46.25;20.10;;;8.00;99.90;;;;;;4994516;28;20031;-71
2022/12/26 12:03:35;;;;;;;46.38;20.13;;;7.90;99.90;;;;;;4992020;28;20054;-74
2022/12/26 12:06:32;;;;;;;46.97;17.98;;;7.90;99.90;;;;;;5005124;28;20030;-71
2022/12/26 12:09:19;;;;;;;36.28;16.30;;;7.90;99.90;;;;;;5004329;28;20054;-72
2022/12/26 12:11:44;;;;;;;59.10;17.95;;;7.80;99.90;;;;;;5007146;28;20156;-73
2022/12/26 12:14:37;;;;;;;59.05;15.48;;;7.80;99.90;;;;;;5006953;28;20096;-72
2022/12/26 12:17:14;;;;;;;45.80;15.43;;;7.80;99.90;;;;;;5001400;28;20030;-71
2022/12/26 12:19:44;;;;;;;51.53;12.23;;;7.70;99.90;;;;;;5000589;28;20116;-73
2022/12/26 12:22:38;;;;;;;45.38;11.38;;;7.60;99.90;;;;;;5004558;28;20026;-74
2022/12/26 12:25:07;;;;;;;;;;;7.50;99.90;;;;;;5001574;28;20022;-73
2022/12/26 12:28:01;;;;;;;53.03;7.65;;;7.40;99.90;;;;;;5003999;28;19910;-73
2022/12/26 12:30:58;;;;;;;46.95;8.05;;;7.30;99.90;;;;;;5004105;28;20028;-73
2022/12/26 12:33:33;;;;;;;42.33;7.72;;;7.20;99.90;;;;;;5002688;28;20033;-73
2022/12/26 12:36:07;;;;;;;50.08;6.88;;;7.10;99.90;;;;;;4997057;28;20468;-72
2022/12/26 12:38:45;;;;;;;60.67;8.93;;;7.00;99.90;;;;;;5005385;28;20076;-72
2022/12/26 12:41:24;;;;;;;62.78;7.68;;;7.00;99.90;;;;;;4997705;28;20125;-72
2022/12/26 12:44:02;;;;;;;69.82;8.77;;;6.90;99.90;;;;;;5004805;28;20026;-73
2022/12/26 12:47:02;;;;;;;74.55;8.63;;;6.80;99.90;;;;;;5013576;28;20031;-75
2022/12/26 12:49:36;;;;;;;61.88;9.68;;;6.80;99.90;;;;;;5017707;28;20033;-71
2022/12/26 12:52:24;;;;;;;52.47;8.23;;;6.80;99.90;;;;;;5005168;28;20021;-74
2022/12/26 12:55:04;;;;;;;69.88;10.82;;;6.80;99.90;;;;;;5002130;28;20080;-74
2022/12/26 12:57:39;;;;;;;73.75;8.95;;;6.80;99.90;;;;;;5003505;28;20035;-74
2022/12/26 13:00:22;;;;;;;93.05;13.02;;;6.80;99.90;;;;;;4995496;28;20029;-72
2022/12/26 13:02:53;;;;;;;53.03;8.13;;;6.80;99.90;;;;;;5005188;28;20485;-73
2022/12/26 13:05:24;;;;;;;49.97;8.83;;;6.80;99.90;;;;;;4999730;28;20162;-73
2022/12/26 13:08:00;;;;;;;55.75;8.23;;;6.80;99.90;;;;;;5021425;28;20049;-73
2022/12/26 13:10:32;;;;;;;51.17;8.48;;;6.70;99.90;;;;;;5001151;28;20027;-71
2022/12/26 13:13:06;;;;;;;30.92;4.60;;;6.60;99.90;;;;;;5007776;28;20096;-74
2022/12/26 13:15:37;;;;;;;48.17;6.60;;;6.50;99.90;;;;;;5006063;28;20026;-72
2022/12/26 13:18:15;;;;;;;43.65;5.20;;;6.40;99.90;;;;;;5002905;28;20031;-71
2022/12/26 13:20:51;;;;;;;47.83;6.38;;;6.30;99.90;;;;;;5003796;28;20511;-72
2022/12/26 13:26:24;;;;;;;38.45;5.57;;;6.00;99.90;;;;;;5001096;28;20053;-70
2022/12/26 13:29:16;;;;;;;34.05;4.93;;;5.90;99.90;;;;;;5008083;28;20044;-72
2022/12/26 13:31:43;;;;;;;36.83;4.47;;;5.90;99.90;;;;;;5008975;28;20069;-71
2022/12/26 13:34:14;;;;;;;36.85;4.60;;;5.90;99.90;;;;;;5009156;28;20438;-71
2022/12/26 13:36:41;;;;;;;27.70;4.05;;;5.90;99.90;;;;;;5001110;28;20093;-72
2022/12/26 13:39:06;;;;;;;43.03;5.55;;;5.80;99.90;;;;;;5008448;28;20026;-72
2022/12/26 13:44:18;;;;;;;34.50;4.15;;;5.80;99.90;;;;;;5002461;28;20089;-73
2022/12/26 13:46:47;;;;;;;24.73;3.55;;;5.80;99.90;;;;;;5003480;28;20030;-72
2022/12/26 13:49:38;;;;;;;35.60;7.85;;;5.80;99.90;;;;;;5004242;28;20034;-71
2022/12/26 13:52:10;;;;;;;48.63;4.05;;;5.70;99.90;;;;;;5004468;28;20473;-74
2022/12/26 13:54:36;;;;;;;37.45;5.07;;;5.70;99.90;;;;;;5009642;28;20024;-74
2022/12/26 13:57:21;;;;;;;22.67;3.08;;;5.70;99.90;;;;;;5009056;28;20054;-71
2022/12/26 13:59:58;;;;;;;30.05;5.07;;;5.70;99.90;;;;;;5001508;28;20397;-71
2022/12/26 14:02:45;;;;;;;33.00;5.28;;;5.70;99.90;;;;;;5001910;28;20053;-72
2022/12/26 14:05:30;;;;;;;50.20;4.65;;;5.70;99.90;;;;;;5005577;28;20029;-70
2022/12/26 14:08:04;;;;;;;41.67;4.35;;;5.70;99.90;;;;;;5007306;28;20371;-71
2022/12/26 14:10:47;;;;;;;35.13;5.38;;;5.80;99.90;;;;;;5010300;28;20436;-71
2022/12/26 14:13:44;;;;;;;40.63;5.28;;;5.80;99.90;;;;;;5010889;28;20033;-71
2022/12/26 14:16:35;;;;;;;40.17;6.32;;;5.80;99.90;;;;;;5010239;28;20030;-71
2022/12/26 14:19:22;;;;;;;30.70;5.60;;;5.80;99.90;;;;;;5004043;28;20494;-71
2022/12/26 14:21:59;;;;;;;43.05;11.38;;;5.80;99.90;;;;;;5010366;28;20034;-72
2022/12/26 14:24:41;;;;;;;41.53;5.70;;;5.70;99.90;;;;;;5008574;28;20045;-71
2022/12/26 14:27:24;;;;;;;26.50;6.88;;;5.70;99.90;;;;;;5006191;28;20018;-71
2022/12/26 14:29:49;;;;;;;39.50;10.05;;;5.70;99.90;;;;;;5005868;28;20025;-70
2022/12/26 14:32:39;;;;;;;51.35;8.77;;;5.60;99.90;;;;;;5009215;28;20014;-71
2022/12/26 14:35:10;;;;;;;44.67;7.43;;;5.50;99.90;;;;;;5003070;28;20037;-71
2022/12/26 14:37:54;;;;;;;35.75;5.60;;;5.50;99.90;;;;;;5006725;28;20065;-71
2022/12/26 14:40:37;;;;;;;35.20;5.18;;;5.50;99.90;;;;;;5012658;28;20156;-71
2022/12/26 14:43:30;;;;;;;53.20;8.88;;;5.40;99.90;;;;;;4997844;28;20045;-73
2022/12/26 14:45:56;;;;;;;42.50;6.25;;;5.50;99.90;;;;;;5005165;28;20080;-71
2022/12/26 14:48:22;;;;;;;30.75;6.05;;;5.40;99.90;;;;;;5008538;28;20378;-71
2022/12/26 14:50:53;;;;;;;48.08;6.13;;;5.30;99.90;;;;;;5007157;28;20024;-71
2022/12/26 14:53:19;;;;;;;52.45;6.00;;;5.20;99.90;;;;;;5005115;28;20044;-71
2022/12/26 14:55:51;;;;;;;43.90;5.28;;;5.20;99.90;;;;;;5006157;28;20486;-71
2022/12/26 14:58:35;;;;;;;42.25;6.30;;;5.20;99.90;;;;;;5005452;28;20398;-71
2022/12/26 15:01:11;;;;;;;39.58;5.57;;;5.20;99.90;;;;;;5006930;28;20026;-72
2022/12/26 15:03:47;;;;;;;45.38;6.72;;;5.20;99.90;;;;;;5012745;28;20370;-71
2022/12/26 15:06:19;;;;;;;57.92;5.82;;;5.10;99.90;;;;;;5009151;28;20026;-72
2022/12/26 15:09:26;;;;;;;38.60;6.97;;;5.00;99.90;;;;;;5012873;28;20037;-72